Time;durP1;ratioP1;P1;durP2;ratioP2;P2;SDS_P1;SDS_P2;PMS_P1;PMS_P2;Temp;Humidity;BMP_temperature;BMP_pressure;BME280_temperature;BME280_humidity;BME280_pressure;Samples;Min_cycle;Max_cycle;Signal;HPM_P1;HPM_P2
2023/02/01 00:00:14;;;;;;;1999.90;999.90;;;5.40;99.90;;;;;;5088121;28;20459;-68
2023/02/01 00:02:41;;;;;;;1999.90;999.90;;;5.40;99.90;;;;;;5087748;28;20441;-69
2023/02/01 00:05:09;;;;;;;1999.90;999.90;;;5.40;99.90;;;;;;5086043;28;20456;-68
2023/02/01 00:07:36;;;;;;;1999.90;999.90;;;5.40;99.90;;;;;;5084968;28;20513;-69
2023/02/01 00:10:04;;;;;;;1999.90;999.90;;;5.40;99.90;;;;;;5088345;28;20474;-69
2023/02/01 00:12:31;;;;;;;1999.90;999.90;;;5.40;99.90;;;;;;5090029;28;20884;-67
2023/02/01 00:14:58;;;;;;;1999.90;999.90;;;5.40;99.90;;;;;;5088976;28;20473;-68
2023/02/01 00:17:26;;;;;;;1999.90;999.90;;;5.30;99.90;;;;;;5087306;28;20446;-67
2023/02/01 00:19:53;;;;;;;1999.90;999.90;;;5.30;99.90;;;;;;5090139;28;21125;-70
2023/02/01 00:22:20;;;;;;;1999.90;999.90;;;5.20;99.90;;;;;;5091328;28;21157;-66
2023/02/01 00:24:46;;;;;;;1999.90;999.90;;;5.20;99.90;;;;;;5088236;28;20461;-67
2023/02/01 00:27:17;;;;;;;1999.90;999.90;;;5.10;99.90;;;;;;5093375;28;20442;-67
2023/02/01 00:29:44;;;;;;;1999.90;999.90;;;5.10;99.90;;;;;;5101490;28;20477;-67
2023/02/01 00:32:11;;;;;;;1999.90;999.90;;;5.10;99.90;;;;;;5110929;28;20433;-67
2023/02/01 00:34:39;;;;;;;1999.90;999.90;;;5.10;99.90;;;;;;5094164;28;20442;-66
2023/02/01 00:37:07;;;;;;;1999.90;999.90;;;5.10;99.90;;;;;;5090890;28;20453;-66
2023/02/01 00:39:34;;;;;;;1999.90;999.90;;;5.00;99.90;;;;;;5091680;28;20442;-67
2023/02/01 00:42:02;;;;;;;1999.90;999.90;;;5.10;99.90;;;;;;5111535;28;20448;-66
2023/02/01 00:44:32;;;;;;;1999.90;999.90;;;5.10;99.90;;;;;;5110973;28;20942;-66
2023/02/01 00:46:59;;;;;;;1999.90;999.90;;;5.10;99.90;;;;;;5101827;28;20438;-67
2023/02/01 00:49:26;;;;;;;1999.90;999.90;;;5.10;99.90;;;;;;5090865;28;20438;-66
2023/02/01 00:51:54;;;;;;;1999.90;999.90;;;5.10;99.90;;;;;;5110857;28;20437;-67
2023/02/01 00:54:21;;;;;;;1999.90;999.90;;;5.00;99.90;;;;;;5110987;28;20437;-66
2023/02/01 00:56:48;;;;;;;1999.90;999.90;;;5.10;99.90;;;;;;5111205;28;20469;-67
2023/02/01 00:59:15;;;;;;;1999.90;999.90;;;5.10;99.90;;;;;;5111489;28;20434;-66
2023/02/01 01:01:41;;;;;;;1999.90;999.90;;;5.20;99.90;;;;;;5111076;28;20464;-67
2023/02/01 01:04:08;;;;;;;1999.90;999.90;;;5.20;99.90;;;;;;5110688;28;20433;-66
2023/02/01 01:06:35;;;;;;;1999.90;999.90;;;5.20;99.90;;;;;;5110780;28;20461;-66
2023/02/01 01:09:06;;;;;;;1999.90;999.90;;;5.10;99.90;;;;;;5110971;28;20433;-67
2023/02/01 01:11:35;;;;;;;1999.90;999.90;;;5.10;99.90;;;;;;5111328;28;20477;-67
2023/02/01 01:14:02;;;;;;;1999.90;999.90;;;5.00;99.90;;;;;;5110956;28;20464;-66
2023/02/01 01:16:31;;;;;;;1999.90;999.90;;;5.00;99.90;;;;;;5110257;28;20457;-67
2023/02/01 01:18:58;;;;;;;1999.90;999.90;;;5.00;99.90;;;;;;5111355;28;20444;-67
2023/02/01 01:21:26;;;;;;;1999.90;999.90;;;4.90;99.90;;;;;;5110583;28;20438;-66
2023/02/01 01:23:53;;;;;;;1999.90;999.90;;;4.90;99.90;;;;;;5110620;28;20437;-67
2023/02/01 01:26:23;;;;;;;1999.90;999.90;;;5.00;99.90;;;;;;5110554;28;20981;-66
2023/02/01 01:28:51;;;;;;;1999.90;999.90;;;5.00;99.90;;;;;;5110531;28;20915;-68
2023/02/01 01:31:19;;;;;;;1999.90;999.90;;;5.10;99.90;;;;;;5110889;28;20842;-67
2023/02/01 01:33:49;;;;;;;1999.90;999.90;;;5.10;99.90;;;;;;5110308;28;20437;-66
2023/02/01 01:36:16;;;;;;;1999.90;999.90;;;5.10;99.90;;;;;;5110318;28;20464;-67
2023/02/01 01:38:43;;;;;;;1999.90;999.90;;;5.20;99.90;;;;;;5110986;28;20444;-67
2023/02/01 01:41:15;;;;;;;1999.90;999.90;;;5.20;99.90;;;;;;5110332;28;20441;-68
2023/02/01 01:43:57;;;;;;;1999.90;999.90;;;5.20;99.90;;;;;;5110267;28;20441;-67
2023/02/01 01:46:25;;;;;;;1999.90;999.90;;;5.30;99.90;;;;;;5109994;28;20978;-66
2023/02/01 01:48:59;;;;;;;1999.90;999.90;;;5.30;99.90;;;;;;5110401;28;20456;-66
2023/02/01 01:51:29;;;;;;;1999.90;999.90;;;5.30;99.90;;;;;;5110299;28;20483;-66
2023/02/01 01:54:02;;;;;;;1999.90;999.90;;;5.40;99.90;;;;;;5109660;28;20441;-67
2023/02/01 01:56:31;;;;;;;1999.90;999.90;;;5.40;99.90;;;;;;5110060;28;20464;-66
2023/02/01 01:59:00;;;;;;;1999.90;999.90;;;5.40;99.90;;;;;;5110229;28;20444;-68
2023/02/01 02:01:28;;;;;;;1999.90;999.90;;;5.50;99.90;;;;;;5110281;28;20446;-67
2023/02/01 02:03:55;;;;;;;1999.90;999.90;;;5.50;99.90;;;;;;5110868;28;20448;-67
2023/02/01 02:06:34;;;;;;;1999.90;999.90;;;5.50;99.90;;;;;;5110637;28;20477;-66
2023/02/01 02:09:01;;;;;;;1999.90;999.90;;;5.50;99.90;;;;;;5090307;28;21004;-67
2023/02/01 02:11:27;;;;;;;1999.90;999.90;;;5.60;99.90;;;;;;5090033;28;20504;-67
2023/02/01 02:13:57;;;;;;;1999.90;999.90;;;5.60;99.90;;;;;;5089999;28;20447;-67
2023/02/01 02:16:41;;;;;;;1999.90;999.90;;;5.60;99.90;;;;;;5090456;28;20466;-68
2023/02/01 02:19:30;;;;;;;1999.90;999.90;;;5.60;99.90;;;;;;5089631;28;20449;-67
2023/02/01 02:22:20;;;;;;;1999.90;999.90;;;5.60;99.90;;;;;;5090076;28;20858;-67
2023/02/01 02:25:18;;;;;;;1999.90;999.90;;;5.60;99.90;;;;;;5090271;28;20826;-67
2023/02/01 02:27:59;;;;;;;1999.90;999.90;;;5.60;99.90;;;;;;5030564;28;20482;-67
2023/02/01 02:30:52;;;;;;;1999.90;999.90;;;5.60;99.90;;;;;;5114216;28;20480;-67
2023/02/01 02:33:50;;;;;;;1999.90;999.90;;;5.60;99.90;;;;;;5114927;28;20447;-67
2023/02/01 02:36:22;;;;;;;1999.90;999.90;;;5.60;99.90;;;;;;5113918;28;21053;-66
2023/02/01 02:38:57;;;;;;;1999.90;999.90;;;5.60;99.90;;;;;;5112889;28;20448;-67
2023/02/01 02:47:26;;;;;;;1999.90;999.90;;;5.50;99.90;;;;;;5113463;28;20440;-66
2023/02/01 02:55:31;;;;;;;1999.90;999.90;;;5.60;99.90;;;;;;5113513;28;20457;-67
2023/02/01 03:06:18;;;;;;;1999.90;999.90;;;5.60;99.90;;;;;;5113613;28;20460;-67
2023/02/01 03:08:45;;;;;;;1999.90;999.90;;;5.70;99.90;;;;;;5113469;28;20564;-67
2023/02/01 03:11:15;;;;;;;1999.90;999.90;;;5.70;99.90;;;;;;5113177;28;20520;-68
2023/02/01 03:13:48;;;;;;;1999.90;999.90;;;5.70;99.90;;;;;;5113065;28;20464;-68
2023/02/01 03:16:25;;;;;;;1999.90;999.90;;;5.70;99.90;;;;;;5113174;28;20552;-67
2023/02/01 03:18:56;;;;;;;1999.90;999.90;;;5.70;99.90;;;;;;5113497;28;20449;-67
2023/02/01 03:21:27;;;;;;;1999.90;999.90;;;5.70;99.90;;;;;;5112965;28;20541;-67
2023/02/01 03:23:55;;;;;;;1999.90;999.90;;;5.70;99.90;;;;;;5092758;28;20448;-67
2023/02/01 03:26:24;;;;;;;1999.90;999.90;;;5.70;99.90;;;;;;5092936;28;20461;-68
2023/02/01 03:28:56;;;;;;;1999.90;999.90;;;5.60;99.90;;;;;;5110343;28;20814;-67
2023/02/01 03:31:24;;;;;;;1999.90;999.90;;;5.60;99.90;;;;;;5113741;28;20484;-66
2023/02/01 03:33:51;;;;;;;1999.90;999.90;;;5.60;99.90;;;;;;5113159;28;20453;-67
2023/02/01 03:36:25;;;;;;;1999.90;999.90;;;5.60;99.90;;;;;;5113067;28;20469;-67
2023/02/01 03:39:00;;;;;;;1999.90;999.90;;;5.50;99.90;;;;;;5112761;28;20444;-67
2023/02/01 03:41:33;;;;;;;1999.90;999.90;;;5.50;99.90;;;;;;5112405;28;20444;-67
2023/02/01 03:44:05;;;;;;;1999.90;999.90;;;5.50;99.90;;;;;;5112230;28;20461;-67
2023/02/01 03:46:35;;;;;;;1999.90;999.90;;;5.40;99.90;;;;;;5112368;28;20812;-67
2023/02/01 03:49:06;;;;;;;1999.90;999.90;;;5.50;99.90;;;;;;5112149;28;21180;-67
2023/02/01 03:51:34;;;;;;;1999.90;999.90;;;5.40;99.90;;;;;;5112347;28;20477;-66
2023/02/01 03:54:04;;;;;;;1999.90;999.90;;;5.50;99.90;;;;;;5112438;28;20456;-66
2023/02/01 03:56:32;;;;;;;1999.90;999.90;;;5.50;99.90;;;;;;5112397;28;20465;-66
2023/02/01 03:58:59;;;;;;;1999.90;999.90;;;5.50;99.90;;;;;;5112477;28;20446;-66
2023/02/01 04:01:28;;;;;;;1999.90;999.90;;;5.50;99.90;;;;;;5112134;28;20437;-67
2023/02/01 04:03:55;;;;;;;1999.90;999.90;;;5.50;99.90;;;;;;5112338;28;20445;-67
2023/02/01 04:06:21;;;;;;;1999.90;999.90;;;5.50;99.90;;;;;;5111964;28;20473;-67
2023/02/01 04:08:48;;;;;;;1999.90;999.90;;;5.50;99.90;;;;;;5112782;28;20531;-66
2023/02/01 04:11:16;;;;;;;1999.90;999.90;;;5.50;99.90;;;;;;5112200;28;20485;-67
2023/02/01 04:13:43;;;;;;;1999.90;999.90;;;5.50;99.90;;;;;;5111758;28;20442;-66
2023/02/01 04:16:10;;;;;;;1999.90;999.90;;;5.50;99.90;;;;;;5112080;28;20472;-67
2023/02/01 04:18:37;;;;;;;1999.90;999.90;;;5.60;99.90;;;;;;5112210;28;20457;-67
2023/02/01 04:21:04;;;;;;;1999.90;999.90;;;5.50;99.90;;;;;;5112279;28;20438;-67
2023/02/01 04:23:31;;;;;;;1999.90;999.90;;;5.50;99.90;;;;;;5112283;28;20456;-67
2023/02/01 04:26:01;;;;;;;1999.90;999.90;;;5.40;99.90;;;;;;5111934;28;20461;-67
2023/02/01 04:28:29;;;;;;;1999.90;999.90;;;5.40;99.90;;;;;;5112186;28;20449;-68
2023/02/01 04:30:56;;;;;;;1999.90;999.90;;;5.30;99.90;;;;;;5111770;28;20473;-66
2023/02/01 04:33:23;;;;;;;1999.90;999.90;;;5.20;99.90;;;;;;5111484;28;20453;-67
2023/02/01 04:35:49;;;;;;;1999.90;999.90;;;5.20;99.90;;;;;;5111897;28;20461;-65
2023/02/01 04:38:16;;;;;;;1999.90;999.90;;;5.20;99.90;;;;;;5111814;28;20456;-66
2023/02/01 04:40:43;;;;;;;1999.90;999.90;;;5.20;99.90;;;;;;5111918;28;20452;-66
2023/02/01 04:43:10;;;;;;;1999.90;999.90;;;5.30;99.90;;;;;;5111556;28;20450;-67
2023/02/01 04:45:38;;;;;;;1999.90;999.90;;;5.30;99.90;;;;;;5111824;28;20495;-66
2023/02/01 04:48:05;;;;;;;1999.90;999.90;;;5.30;99.90;;;;;;5112754;28;20448;-67
2023/02/01 04:50:32;;;;;;;1999.90;999.90;;;5.20;99.90;;;;;;5111388;28;20454;-66
2023/02/01 04:52:58;;;;;;;1999.90;999.90;;;5.30;99.90;;;;;;5111890;28;20446;-67
2023/02/01 04:55:25;;;;;;;1999.90;999.90;;;5.30;99.90;;;;;;5112037;28;20461;-67
2023/02/01 04:57:52;;;;;;;1999.90;999.90;;;5.40;99.90;;;;;;5111381;28;21205;-67
2023/02/01 05:00:19;;;;;;;1999.90;999.90;;;5.40;99.90;;;;;;5111416;28;20444;-67
2023/02/01 05:02:47;;;;;;;1999.90;999.90;;;5.40;99.90;;;;;;5111228;28;20441;-66
2023/02/01 05:05:14;;;;;;;1999.90;999.90;;;5.50;99.90;;;;;;5111504;28;20464;-66
2023/02/01 05:07:41;;;;;;;1999.90;999.90;;;5.40;99.90;;;;;;5111789;28;20820;-66
2023/02/01 05:10:09;;;;;;;1999.90;999.90;;;5.30;99.90;;;;;;5111087;28;20441;-66
2023/02/01 05:15:20;;;;;;;1999.90;999.90;;;5.30;99.90;;;;;;5111245;28;20447;-66
2023/02/01 05:17:48;;;;;;;1999.90;999.90;;;5.30;99.90;;;;;;5092519;28;20474;-68
2023/02/01 05:20:15;;;;;;;1999.90;999.90;;;5.40;99.90;;;;;;5097274;28;20449;-66
2023/02/01 05:22:42;;;;;;;1999.90;999.90;;;5.50;99.90;;;;;;5111983;28;20441;-67
2023/02/01 05:25:09;;;;;;;1999.90;999.90;;;5.60;99.90;;;;;;5112261;28;20466;-66
2023/02/01 05:27:36;;;;;;;1999.90;999.90;;;5.60;99.90;;;;;;5113625;28;20448;-67
2023/02/01 05:30:04;;;;;;;1999.90;999.90;;;5.70;99.90;;;;;;5112365;28;20456;-65
2023/02/01 05:32:30;;;;;;;1999.90;999.90;;;5.70;99.90;;;;;;5111202;28;20489;-66
2023/02/01 05:34:59;;;;;;;1999.90;999.90;;;5.80;99.90;;;;;;5109791;28;20468;-70
2023/02/01 05:37:26;;;;;;;1999.90;999.90;;;5.80;99.90;;;;;;5109837;28;20456;-68
2023/02/01 05:39:52;;;;;;;1999.90;999.90;;;5.80;99.90;;;;;;5109746;28;20950;-67
2023/02/01 05:42:19;;;;;;;1999.90;999.90;;;5.80;99.90;;;;;;5112007;28;20942;-67
2023/02/01 05:44:46;;;;;;;1999.90;999.90;;;5.80;99.90;;;;;;5111643;28;20523;-67
2023/02/01 05:47:13;;;;;;;1999.90;999.90;;;5.80;99.90;;;;;;5110492;28;20449;-68
2023/02/01 05:49:40;;;;;;;1999.90;999.90;;;5.80;99.90;;;;;;5111000;28;20441;-67
2023/02/01 05:52:08;;;;;;;1999.90;999.90;;;5.80;99.90;;;;;;5110362;28;20477;-67
2023/02/01 05:54:35;;;;;;;1999.90;999.90;;;5.80;99.90;;;;;;5111636;28;20446;-68
2023/02/01 05:57:01;;;;;;;1999.90;999.90;;;5.80;99.90;;;;;;5112570;28;20449;-67
2023/02/01 05:59:29;;;;;;;1999.90;999.90;;;5.80;99.90;;;;;;5111931;28;20460;-67
2023/02/01 06:01:55;;;;;;;1999.90;999.90;;;5.80;99.90;;;;;;5111091;28;20942;-61
2023/02/01 06:04:22;;;;;;;1999.90;999.90;;;5.70;99.90;;;;;;5111051;28;20453;-63
2023/02/01 06:06:50;;;;;;;1999.90;999.90;;;5.70;99.90;;;;;;5111379;28;20962;-61
2023/02/01 06:09:18;;;;;;;1999.90;999.90;;;5.70;99.90;;;;;;5112062;28;20546;-63
2023/02/01 06:11:45;;;;;;;1999.90;999.90;;;5.70;99.90;;;;;;5111527;28;21199;-63
2023/02/01 06:14:12;;;;;;;1999.90;999.90;;;5.70;99.90;;;;;;5110676;28;20449;-67
2023/02/01 06:16:38;;;;;;;1999.90;999.90;;;5.80;99.90;;;;;;5110812;28;20465;-68
2023/02/01 06:19:05;;;;;;;1999.90;999.90;;;5.80;99.90;;;;;;5110983;28;20449;-66
2023/02/01 06:21:33;;;;;;;1999.90;999.90;;;5.80;99.90;;;;;;5106516;28;20830;-69
2023/02/01 06:24:21;;;;;;;1999.90;999.90;;;5.80;99.90;;;;;;5103261;28;20542;-68
2023/02/01 06:26:49;;;;;;;1999.90;999.90;;;5.90;99.90;;;;;;5105740;28;21029;-68
2023/02/01 06:29:16;;;;;;;1999.90;999.90;;;5.90;99.90;;;;;;5109326;28;20433;-69
2023/02/01 06:31:43;;;;;;;1999.90;999.90;;;5.90;99.90;;;;;;5108901;28;20497;-68
2023/02/01 06:34:10;;;;;;;1999.90;999.90;;;5.90;99.90;;;;;;5110533;28;20449;-66
2023/02/01 06:36:36;;;;;;;1999.90;999.90;;;5.90;99.90;;;;;;5110725;28;20465;-67
2023/02/01 06:39:03;;;;;;;1999.90;999.90;;;6.00;99.90;;;;;;5110852;28;20441;-67
2023/02/01 06:41:30;;;;;;;1999.90;999.90;;;6.00;99.90;;;;;;5110690;28;20452;-65
2023/02/01 06:43:58;;;;;;;1999.90;999.90;;;6.00;99.90;;;;;;5107698;28;20498;-66
2023/02/01 06:46:25;;;;;;;1999.90;999.90;;;6.10;99.90;;;;;;5111963;28;20461;-64
2023/02/01 06:48:52;;;;;;;1999.90;999.90;;;6.00;99.90;;;;;;5111189;28;21079;-67
2023/02/01 06:51:24;;;;;;;1999.90;999.90;;;6.00;99.90;;;;;;5108893;28;20814;-67
2023/02/01 06:53:51;;;;;;;1999.90;999.90;;;6.10;99.90;;;;;;5108635;28;20448;-67
2023/02/01 06:56:18;;;;;;;1999.90;999.90;;;6.10;99.90;;;;;;5110157;28;20465;-68
2023/02/01 06:58:45;;;;;;;1999.90;999.90;;;6.20;99.90;;;;;;5110992;28;20457;-67
2023/02/01 07:01:13;;;;;;;1999.90;999.90;;;6.20;99.90;;;;;;5109361;28;20461;-67
2023/02/01 07:03:40;;;;;;;1999.90;999.90;;;6.30;99.90;;;;;;5109160;28;20449;-67
2023/02/01 07:06:08;;;;;;;1999.90;999.90;;;6.30;99.90;;;;;;5110151;28;20472;-67
2023/02/01 07:08:36;;;;;;;1999.90;999.90;;;6.40;99.90;;;;;;5110535;28;20453;-67
2023/02/01 07:11:04;;;;;;;1999.90;999.90;;;6.40;99.90;;;;;;5110821;28;20441;-66
2023/02/01 07:13:31;;;;;;;1999.90;999.90;;;6.50;99.90;;;;;;5111645;28;20473;-66
2023/02/01 07:16:02;;;;;;;1999.90;999.90;;;6.50;99.90;;;;;;5114442;28;20461;-67
2023/02/01 07:18:32;;;;;;;1999.90;999.90;;;6.50;99.90;;;;;;5115222;28;20455;-66
2023/02/01 07:20:59;;;;;;;1999.90;999.90;;;6.60;99.90;;;;;;5113842;28;20484;-66
2023/02/01 07:23:27;;;;;;;1999.90;999.90;;;6.60;99.90;;;;;;5113987;28;20442;-66
2023/02/01 07:25:55;;;;;;;1999.90;999.90;;;6.60;99.90;;;;;;5113516;28;20453;-66
2023/02/01 07:28:22;;;;;;;1999.90;999.90;;;6.70;99.90;;;;;;5114213;28;20452;-67
2023/02/01 07:30:50;;;;;;;1999.90;999.90;;;6.70;99.90;;;;;;5114497;28;20490;-67
2023/02/01 07:33:18;;;;;;;1999.90;999.90;;;6.70;99.90;;;;;;5113961;28;20495;-67
2023/02/01 07:35:46;;;;;;;1999.90;999.90;;;6.70;99.90;;;;;;5113663;28;20457;-67
2023/02/01 07:38:13;;;;;;;1999.90;999.90;;;6.80;99.90;;;;;;5113565;28;20949;-68
2023/02/01 07:40:42;;;;;;;1999.90;999.90;;;6.70;99.90;;;;;;5113371;28;20452;-67
2023/02/01 07:43:09;;;;;;;1999.90;999.90;;;6.80;99.90;;;;;;5113798;28;20441;-68
2023/02/01 07:45:36;;;;;;;1999.90;999.90;;;6.80;99.90;;;;;;5113598;28;20477;-67
2023/02/01 07:48:03;;;;;;;1999.90;999.90;;;6.80;99.90;;;;;;5113913;28;20446;-68
2023/02/01 07:50:30;;;;;;;1999.90;999.90;;;6.80;99.90;;;;;;5113851;28;20460;-67
2023/02/01 07:53:01;;;;;;;1999.90;999.90;;;6.80;99.90;;;;;;5113026;28;20845;-68
2023/02/01 07:55:28;;;;;;;1999.90;999.90;;;6.90;99.90;;;;;;5112982;28;20529;-68
2023/02/01 07:57:58;;;;;;;1999.90;999.90;;;6.90;99.90;;;;;;5113207;28;20470;-68
2023/02/01 08:03:09;;;;;;;1999.90;999.90;;;6.90;99.90;;;;;;5112871;28;20416;-67
2023/02/01 08:05:36;;;;;;;1999.90;999.90;;;6.90;99.90;;;;;;5113097;28;20461;-68
2023/02/01 08:08:05;;;;;;;1999.90;999.90;;;6.90;99.90;;;;;;5112732;28;20542;-67
2023/02/01 08:10:32;;;;;;;1999.90;999.90;;;6.90;99.90;;;;;;5112994;28;20441;-66
2023/02/01 08:13:00;;;;;;;1999.90;999.90;;;6.90;99.90;;;;;;5112172;28;20481;-66
2023/02/01 08:15:27;;;;;;;1999.90;999.90;;;7.00;99.90;;;;;;5112456;28;20469;-66
2023/02/01 08:17:55;;;;;;;1999.90;999.90;;;7.00;99.90;;;;;;5112435;28;20437;-67
2023/02/01 08:20:23;;;;;;;1999.90;999.90;;;7.10;99.90;;;;;;5112802;28;20450;-66
2023/02/01 08:22:50;;;;;;;1999.90;999.90;;;7.10;99.90;;;;;;5112070;28;20453;-68
2023/02/01 08:25:18;;;;;;;1999.90;999.90;;;7.10;99.90;;;;;;5111527;28;20465;-66
2023/02/01 08:27:45;;;;;;;1999.90;999.90;;;7.20;99.90;;;;;;5112301;28;20452;-65
2023/02/01 08:30:13;;;;;;;1999.90;999.90;;;7.30;99.90;;;;;;5112497;28;20460;-67
2023/02/01 08:32:39;;;;;;;1999.90;999.90;;;7.40;99.90;;;;;;5111924;28;20473;-66
2023/02/01 08:35:07;;;;;;;1999.90;999.90;;;7.40;99.90;;;;;;5111677;28;20473;-66
2023/02/01 08:37:34;;;;;;;1999.90;999.90;;;7.40;99.90;;;;;;5112443;28;20476;-65
2023/02/01 08:40:01;;;;;;;1999.90;999.90;;;7.50;99.90;;;;;;5112186;28;20449;-66
2023/02/01 08:45:13;;;;;;;1999.90;999.90;;;7.60;99.90;;;;;;5111380;28;20456;-66
2023/02/01 08:47:40;;;;;;;1999.90;999.90;;;7.60;99.90;;;;;;5111668;28;20445;-66
2023/02/01 08:50:08;;;;;;;1999.90;999.90;;;7.60;99.90;;;;;;5111951;28;20449;-67
2023/02/01 08:52:35;;;;;;;1999.90;999.90;;;7.60;99.90;;;;;;5111824;28;20484;-66
2023/02/01 08:55:02;;;;;;;1999.90;999.90;;;7.60;99.90;;;;;;5111754;28;20511;-67
2023/02/01 08:57:30;;;;;;;1999.90;999.90;;;7.60;99.90;;;;;;5111900;28;20449;-67
2023/02/01 08:59:57;;;;;;;1999.90;999.90;;;7.50;99.90;;;;;;5111976;28;20830;-66
2023/02/01 09:02:24;;;;;;;1999.90;999.90;;;7.50;99.90;;;;;;5111824;28;20861;-66
2023/02/01 09:04:51;;;;;;;1999.90;999.90;;;7.50;99.90;;;;;;5111358;28;20548;-66
2023/02/01 09:07:18;;;;;;;1999.90;999.90;;;7.40;99.90;;;;;;5111676;28;20445;-67
2023/02/01 09:09:45;;;;;;;1999.90;999.90;;;7.40;99.90;;;;;;5111912;28;20445;-66
2023/02/01 09:12:12;;;;;;;1999.90;999.90;;;7.30;99.90;;;;;;5111224;28;20477;-67
2023/02/01 09:14:40;;;;;;;1999.90;999.90;;;7.30;99.90;;;;;;5111202;28;21082;-66
2023/02/01 09:17:07;;;;;;;1999.90;999.90;;;7.30;99.90;;;;;;5111457;28;20483;-66
2023/02/01 09:19:34;;;;;;;1999.90;999.90;;;7.20;99.90;;;;;;5111328;28;20524;-66
2023/02/01 09:22:01;;;;;;;1999.90;999.90;;;7.20;99.90;;;;;;5111641;28;20540;-66
2023/02/01 09:24:28;;;;;;;1999.90;999.90;;;7.10;99.90;;;;;;5111039;28;20444;-66
2023/02/01 09:26:55;;;;;;;1999.90;999.90;;;7.00;99.90;;;;;;5111507;28;20482;-66
2023/02/01 09:29:21;;;;;;;1999.90;999.90;;;7.00;99.90;;;;;;5111004;28;20446;-66
2023/02/01 09:31:49;;;;;;;1999.90;999.90;;;7.00;99.90;;;;;;5111295;28;20437;-67
2023/02/01 09:34:16;;;;;;;1999.90;999.90;;;7.10;99.90;;;;;;5110520;28;20476;-66
2023/02/01 09:36:43;;;;;;;1999.90;999.90;;;7.40;99.90;;;;;;5110897;28;20466;-67
2023/02/01 09:39:10;;;;;;;1999.90;999.90;;;7.60;99.90;;;;;;5111924;28;20939;-66
2023/02/01 09:41:47;;;;;;;1999.90;999.90;;;7.70;99.90;;;;;;5111060;28;20442;-65
2023/02/01 09:44:27;;;;;;;1999.90;999.90;;;7.60;99.90;;;;;;5110541;28;20903;-67
2023/02/01 09:46:57;;;;;;;1999.90;999.90;;;7.60;99.90;;;;;;5111269;28;20445;-66
2023/02/01 09:49:30;;;;;;;1999.90;999.90;;;7.50;99.90;;;;;;5111361;28;20449;-66
2023/02/01 09:51:57;;;;;;;1999.90;999.90;;;7.60;99.90;;;;;;5111187;28;20835;-66
2023/02/01 09:54:27;;;;;;;1999.90;999.90;;;7.50;99.90;;;;;;5110520;28;20477;-66
2023/02/01 09:56:59;;;;;;;1999.90;999.90;;;7.50;99.90;;;;;;5111027;28;20452;-67
2023/02/01 09:59:34;;;;;;;1999.90;999.90;;;7.50;99.90;;;;;;5111208;28;20445;-67
2023/02/01 10:02:05;;;;;;;1999.90;999.90;;;7.60;99.90;;;;;;5110997;28;20445;-66
2023/02/01 10:04:33;;;;;;;1999.90;999.90;;;7.70;99.90;;;;;;5110661;28;20451;-67
2023/02/01 10:07:11;;;;;;;1999.90;999.90;;;7.70;99.90;;;;;;5111040;28;20441;-67
2023/02/01 10:09:50;;;;;;;1999.90;999.90;;;7.70;99.90;;;;;;5111513;28;20460;-67
2023/02/01 10:12:50;;;;;;;1999.90;999.90;;;7.70;99.90;;;;;;5111315;28;20445;-67
2023/02/01 10:15:29;;;;;;;1999.90;999.90;;;7.60;99.90;;;;;;5111385;28;20461;-67
2023/02/01 10:18:19;;;;;;;1999.90;999.90;;;7.60;99.90;;;;;;5111406;28;20449;-67
2023/02/01 10:20:58;;;;;;;1999.90;999.90;;;7.60;99.90;;;;;;5111622;28;20911;-66
2023/02/01 10:23:58;;;;;;;1999.90;999.90;;;7.60;99.90;;;;;;5111017;28;20433;-68
2023/02/01 10:26:32;;;;;;;1999.90;999.90;;;7.60;99.90;;;;;;5108286;28;20476;-67
2023/02/01 10:29:01;;;;;;;1999.90;999.90;;;7.60;99.90;;;;;;5112745;28;20452;-67
2023/02/01 10:31:31;;;;;;;1999.90;999.90;;;7.80;99.90;;;;;;5117775;28;20934;-67
2023/02/01 10:34:02;;;;;;;1999.90;999.90;;;7.90;99.90;;;;;;5112885;28;20484;-67
2023/02/01 10:36:36;;;;;;;1999.90;999.90;;;7.90;99.90;;;;;;5112768;28;20461;-66
2023/02/01 10:39:07;;;;;;;1999.90;999.90;;;7.80;99.90;;;;;;5111405;28;20441;-66
2023/02/01 10:41:36;;;;;;;1999.90;999.90;;;7.80;99.90;;;;;;5110307;28;20448;-67
2023/02/01 10:44:11;;;;;;;1999.90;999.90;;;7.80;99.90;;;;;;5109742;28;20453;-67
2023/02/01 10:46:38;;;;;;;1999.90;999.90;;;7.80;99.90;;;;;;5110261;28;20457;-66
2023/02/01 10:49:10;;;;;;;1999.90;999.90;;;7.70;99.90;;;;;;5113433;28;20452;-66
2023/02/01 10:51:46;;;;;;;1999.90;999.90;;;7.80;99.90;;;;;;5116151;28;20904;-67
2023/02/01 10:54:20;;;;;;;1999.90;999.90;;;7.80;99.90;;;;;;5115542;28;20480;-67
2023/02/01 10:56:48;;;;;;;1999.90;999.90;;;7.80;99.90;;;;;;5114680;28;20480;-66
2023/02/01 10:59:19;;;;;;;1999.90;999.90;;;7.80;99.90;;;;;;5114194;28;20448;-67
2023/02/01 11:01:48;;;;;;;1999.90;999.90;;;7.80;99.90;;;;;;5114623;28;20445;-66
2023/02/01 11:04:20;;;;;;;1999.90;999.90;;;7.80;99.90;;;;;;5113598;28;20433;-68
2023/02/01 11:06:48;;;;;;;1999.90;999.90;;;7.80;99.90;;;;;;5113757;28;21038;-68
2023/02/01 11:09:21;;;;;;;1999.90;999.90;;;7.80;99.90;;;;;;5113197;28;20969;-67
2023/02/01 11:11:58;;;;;;;1999.90;999.90;;;7.80;99.90;;;;;;5113706;28;20452;-67
2023/02/01 11:14:36;;;;;;;1999.90;999.90;;;7.80;99.90;;;;;;5112940;28;20860;-66
2023/02/01 11:17:23;;;;;;;1999.90;999.90;;;7.90;99.90;;;;;;5113314;28;20448;-67
2023/02/01 11:20:03;;;;;;;1999.90;999.90;;;7.90;99.90;;;;;;5113226;28;20494;-67
2023/02/01 11:22:30;;;;;;;1999.90;999.90;;;7.80;99.90;;;;;;5112618;28;20980;-67
2023/02/01 11:24:57;;;;;;;1999.90;999.90;;;7.80;99.90;;;;;;5112945;28;20551;-66
2023/02/01 11:27:30;;;;;;;1999.90;999.90;;;7.80;99.90;;;;;;5113194;28;20879;-66
2023/02/01 11:30:03;;;;;;;1999.90;999.90;;;7.80;99.90;;;;;;5113495;28;21132;-67
2023/02/01 11:32:31;;;;;;;1999.90;999.90;;;7.70;99.90;;;;;;5112880;28;20451;-67
2023/02/01 11:35:07;;;;;;;1999.90;999.90;;;7.70;99.90;;;;;;5112947;28;20457;-66
2023/02/01 11:37:39;;;;;;;1999.90;999.90;;;7.70;99.90;;;;;;5112940;28;20536;-67
2023/02/01 11:40:26;;;;;;;1999.90;999.90;;;7.80;99.90;;;;;;5113043;28;20484;-67
2023/02/01 11:42:59;;;;;;;1999.90;999.90;;;7.80;99.90;;;;;;5112414;28;20886;-66
2023/02/01 11:45:33;;;;;;;1999.90;999.90;;;7.80;99.90;;;;;;5112767;28;20484;-66
2023/02/01 11:48:11;;;;;;;1999.90;999.90;;;7.80;99.90;;;;;;5112868;28;20452;-66
2023/02/01 11:50:46;;;;;;;1999.90;999.90;;;7.80;99.90;;;;;;5112994;28;20452;-67
2023/02/01 11:53:28;;;;;;;1999.90;999.90;;;7.80;99.90;;;;;;5112874;28;20473;-67
2023/02/01 11:56:18;;;;;;;1999.90;999.90;;;7.80;99.90;;;;;;5113638;28;20465;-66
2023/02/01 11:59:20;;;;;;;1999.90;999.90;;;7.80;99.90;;;;;;5112865;28;20485;-67
2023/02/01 12:02:10;;;;;;;1999.90;999.90;;;7.80;99.90;;;;;;5113146;28;20452;-68
2023/02/01 12:05:02;;;;;;;1999.90;999.90;;;7.90;99.90;;;;;;5113201;28;20438;-67
2023/02/01 12:08:00;;;;;;;1999.90;999.90;;;8.10;99.90;;;;;;5114024;28;20448;-67
2023/02/01 12:10:41;;;;;;;1999.90;999.90;;;8.10;99.90;;;;;;5077634;28;20460;-68
2023/02/01 12:13:22;;;;;;;1999.90;999.90;;;8.00;99.90;;;;;;5113112;28;20488;-67
2023/02/01 12:16:02;;;;;;;1999.90;999.90;;;8.00;99.90;;;;;;5112845;28;20492;-67
2023/02/01 12:19:00;;;;;;;1999.90;999.90;;;7.90;99.90;;;;;;5113372;28;20448;-66
2023/02/01 12:21:45;;;;;;;1999.90;999.90;;;7.80;99.90;;;;;;5113343;28;20472;-68
2023/02/01 12:24:43;;;;;;;1999.90;999.90;;;7.70;99.90;;;;;;5113033;28;20443;-68
2023/02/01 12:27:28;;;;;;;1999.90;999.90;;;7.70;99.90;;;;;;5113334;28;20446;-67
2023/02/01 12:30:08;;;;;;;1999.90;999.90;;;7.60;99.90;;;;;;5113217;28;20437;-67
2023/02/01 12:32:51;;;;;;;1999.90;999.90;;;7.60;99.90;;;;;;5113383;28;20527;-68
2023/02/01 12:35:41;;;;;;;1999.90;999.90;;;7.70;99.90;;;;;;5113350;28;20483;-68
2023/02/01 12:38:30;;;;;;;1999.90;999.90;;;7.70;99.90;;;;;;5112805;28;20438;-67
2023/02/01 12:41:07;;;;;;;1999.90;999.90;;;7.70;99.90;;;;;;5112795;28;20485;-68
2023/02/01 12:43:40;;;;;;;1999.90;999.90;;;7.70;99.90;;;;;;5112301;28;20444;-67
2023/02/01 12:46:13;;;;;;;1999.90;999.90;;;7.70;99.90;;;;;;5106562;28;20461;-67
2023/02/01 12:48:44;;;;;;;1999.90;999.90;;;7.60;99.90;;;;;;5131529;27;20445;-67
2023/02/01 12:51:14;;;;;;;1999.90;999.90;;;7.50;99.90;;;;;;5132985;27;20436;-67
2023/02/01 12:53:51;;;;;;;1999.90;999.90;;;7.50;99.90;;;;;;5133119;27;20533;-68